createdAt,value
2022-07-31T00:02:54.175Z,3.25
2022-07-31T00:05:22.869Z,3.28
2022-07-31T00:07:50.299Z,2.95
2022-07-31T00:10:17.414Z,3.88
2022-07-31T00:12:44.600Z,3.88
2022-07-31T00:15:12.226Z,4.40
2022-07-31T00:17:41.302Z,4.17
2022-07-31T00:20:14.580Z,5.25
2022-07-31T00:22:43.129Z,4.50
2022-07-31T00:25:12.200Z,3.95
2022-07-31T00:27:41.257Z,4.25
2022-07-31T00:30:11.874Z,3.80
2022-07-31T00:32:41.097Z,3.80
2022-07-31T00:35:10.145Z,2.97
2022-07-31T00:37:41.454Z,3.22
2022-07-31T00:40:12.653Z,3.63
2022-07-31T00:42:40.620Z,3.35
2022-07-31T00:45:09.341Z,4.10
2022-07-31T00:47:36.769Z,3.50
2022-07-31T00:50:07.525Z,3.00
2022-07-31T00:52:34.645Z,3.60
2022-07-31T00:55:02.000Z,3.70
2022-07-31T00:57:29.109Z,3.42
2022-07-31T00:59:57.168Z,3.40
2022-07-31T01:02:24.417Z,3.75
2022-07-31T01:04:51.551Z,3.75
2022-07-31T01:07:19.042Z,4.38
2022-07-31T01:09:48.043Z,5.40
2022-07-31T01:12:25.438Z,5.07
2022-07-31T01:15:04.754Z,4.15
2022-07-31T01:17:33.807Z,4.28
2022-07-31T01:20:01.848Z,6.38
2022-07-31T01:22:50.038Z,4.97
2022-07-31T01:26:02.556Z,5.80
2022-07-31T01:29:02.819Z,6.82
2022-07-31T01:31:45.737Z,8.00
2022-07-31T01:34:30.782Z,7.30
2022-07-31T01:37:10.740Z,6.75
2022-07-31T01:39:46.001Z,7.70
2022-07-31T01:42:18.003Z,7.80
2022-07-31T01:44:52.601Z,6.88
2022-07-31T01:47:22.555Z,6.65
2022-07-31T01:49:52.634Z,5.93
2022-07-31T01:52:25.258Z,6.88
2022-07-31T01:54:54.998Z,6.80
2022-07-31T01:57:25.304Z,5.70
2022-07-31T01:59:57.968Z,7.40
2022-07-31T02:02:46.825Z,6.93
2022-07-31T02:05:17.866Z,5.80
2022-07-31T02:07:46.547Z,7.25
2022-07-31T02:10:15.926Z,6.90
2022-07-31T02:12:45.421Z,4.45
2022-07-31T02:15:16.086Z,4.38
2022-07-31T02:17:46.975Z,5.53
2022-07-31T02:20:25.242Z,5.72
2022-07-31T02:22:58.392Z,5.22
2022-07-31T02:25:27.168Z,5.00
2022-07-31T02:27:59.215Z,5.43
2022-07-31T02:30:39.571Z,4.00
2022-07-31T02:33:18.447Z,4.72
2022-07-31T02:35:49.661Z,5.03
2022-07-31T02:38:23.028Z,6.10
2022-07-31T02:40:57.450Z,6.30
2022-07-31T02:43:26.094Z,5.97
2022-07-31T02:45:56.813Z,6.28
2022-07-31T02:48:25.626Z,5.82
2022-07-31T02:50:54.736Z,8.63
2022-07-31T02:53:22.194Z,8.48
2022-07-31T02:55:54.231Z,7.38
2022-07-31T02:58:21.631Z,7.03
2022-07-31T03:01:07.694Z,6.15
2022-07-31T03:03:37.123Z,5.97
2022-07-31T03:06:04.398Z,6.80
2022-07-31T03:08:33.079Z,8.70
2022-07-31T03:11:05.346Z,5.22
2022-07-31T03:13:34.845Z,7.80
2022-07-31T03:16:06.480Z,7.60
2022-07-31T03:18:34.065Z,7.25
2022-07-31T03:21:01.534Z,6.07
2022-07-31T03:23:35.653Z,6.38
2022-07-31T03:26:08.132Z,9.75
2022-07-31T03:28:35.731Z,7.45
2022-07-31T03:31:03.892Z,8.90
2022-07-31T03:33:31.983Z,11.43
2022-07-31T03:35:59.367Z,6.90
2022-07-31T03:38:40.748Z,10.60
2022-07-31T03:41:31.352Z,9.10
2022-07-31T03:43:58.934Z,8.45
2022-07-31T03:46:26.297Z,7.15
2022-07-31T03:48:54.180Z,7.63
2022-07-31T03:51:25.333Z,8.25
2022-07-31T03:53:52.609Z,7.57
2022-07-31T03:56:40.347Z,7.75
2022-07-31T03:59:15.316Z,8.25
2022-07-31T04:01:58.261Z,6.22
2022-07-31T04:04:39.436Z,11.30
2022-07-31T04:07:06.608Z,14.52
2022-07-31T04:09:33.929Z,11.07
2022-07-31T04:12:03.043Z,11.15
2022-07-31T04:14:30.812Z,8.82
2022-07-31T04:16:57.946Z,9.38
2022-07-31T04:22:01.540Z,12.07
2022-07-31T04:24:30.104Z,10.95
2022-07-31T04:27:12.204Z,10.32
2022-07-31T04:29:43.765Z,10.32
2022-07-31T04:32:11.340Z,10.70
2022-07-31T04:34:46.992Z,10.98
2022-07-31T04:37:14.166Z,11.88
2022-07-31T04:39:41.530Z,9.35
2022-07-31T04:42:11.470Z,7.47
2022-07-31T04:44:38.971Z,9.98
2022-07-31T04:47:08.156Z,9.32
2022-07-31T04:49:41.419Z,9.02
2022-07-31T04:52:09.214Z,10.13
2022-07-31T04:54:38.414Z,8.43
2022-07-31T04:57:07.852Z,7.65
2022-07-31T04:59:59.119Z,10.82
2022-07-31T05:02:22.139Z,10.30
2022-07-31T05:04:52.676Z,11.07
2022-07-31T05:07:28.533Z,10.95
2022-07-31T05:09:57.969Z,13.15
2022-07-31T05:12:25.773Z,9.65
2022-07-31T05:14:53.167Z,6.82
2022-07-31T05:17:21.404Z,7.68
2022-07-31T05:20:09.712Z,6.97
2022-07-31T05:22:57.537Z,7.00
2022-07-31T05:25:53.861Z,6.45
2022-07-31T05:28:29.693Z,7.75
2022-07-31T05:30:58.229Z,7.50
2022-07-31T05:33:25.880Z,9.10
2022-07-31T05:35:56.777Z,7.65
2022-07-31T05:38:25.287Z,7.05
2022-07-31T05:41:21.380Z,6.95
2022-07-31T05:44:23.962Z,6.03
2022-07-31T05:49:19.813Z,4.35
2022-07-31T05:51:53.582Z,4.82
2022-07-31T05:54:21.944Z,3.65
2022-07-31T05:57:08.257Z,3.35
2022-07-31T05:59:40.530Z,3.58
2022-07-31T06:02:08.358Z,2.88
2022-07-31T06:04:53.667Z,3.05
2022-07-31T06:09:48.384Z,2.80
2022-07-31T06:12:19.005Z,2.13
2022-07-31T06:14:46.379Z,2.70
2022-07-31T06:17:21.218Z,1.90
2022-07-31T06:19:50.151Z,2.70
2022-07-31T06:22:17.510Z,2.65
2022-07-31T06:24:44.703Z,2.42
2022-07-31T06:27:24.102Z,2.55
2022-07-31T06:32:26.033Z,2.50
2022-07-31T06:34:53.517Z,2.38
2022-07-31T06:37:20.714Z,2.20
2022-07-31T06:39:56.108Z,2.13
2022-07-31T06:42:39.147Z,1.95
2022-07-31T06:45:07.198Z,2.67
2022-07-31T06:47:37.451Z,2.72
2022-07-31T06:50:31.173Z,2.95
2022-07-31T06:53:16.695Z,2.65
2022-07-31T06:55:44.583Z,2.38
2022-07-31T06:58:12.207Z,3.58
2022-07-31T07:00:39.470Z,3.08
2022-07-31T07:03:06.660Z,3.33
2022-07-31T07:05:33.965Z,3.38
2022-07-31T07:08:03.210Z,3.38
2022-07-31T07:10:32.431Z,3.75
2022-07-31T07:12:59.612Z,3.30
2022-07-31T07:15:29.926Z,3.05
2022-07-31T07:17:57.047Z,3.07
2022-07-31T07:20:35.990Z,3.33
2022-07-31T07:23:03.350Z,3.63
2022-07-31T07:25:44.135Z,4.00
2022-07-31T07:28:16.614Z,3.00
2022-07-31T07:30:59.183Z,4.03
2022-07-31T07:33:39.529Z,3.35
2022-07-31T07:36:22.771Z,3.10
2022-07-31T07:38:55.211Z,2.45
2022-07-31T07:41:24.822Z,3.08
2022-07-31T07:43:53.120Z,3.50
2022-07-31T07:46:23.393Z,3.47
2022-07-31T07:48:54.317Z,4.07
2022-07-31T07:52:00.121Z,3.80
2022-07-31T07:54:42.214Z,3.08
2022-07-31T07:57:39.331Z,3.58
2022-07-31T08:00:32.477Z,4.50
2022-07-31T08:03:50.442Z,4.13
2022-07-31T08:05:50.245Z,5.22
2022-07-31T08:08:17.307Z,5.03
2022-07-31T08:10:47.054Z,4.97
2022-07-31T08:13:28.889Z,5.18
2022-07-31T08:16:14.842Z,5.47
2022-07-31T08:18:54.639Z,5.25
2022-07-31T08:21:22.495Z,5.07
2022-07-31T08:23:50.173Z,5.25
2022-07-31T08:26:17.655Z,5.97
2022-07-31T08:28:50.599Z,7.88
2022-07-31T08:31:20.371Z,8.02
2022-07-31T08:34:05.872Z,8.88
2022-07-31T08:36:35.200Z,7.93
2022-07-31T08:39:03.462Z,7.80
2022-07-31T08:41:50.262Z,8.57
2022-07-31T08:44:17.700Z,11.30
2022-07-31T08:46:56.584Z,10.95
2022-07-31T08:49:26.585Z,11.88
2022-07-31T08:51:57.175Z,10.98
2022-07-31T08:54:45.761Z,10.98
2022-07-31T08:57:13.749Z,11.77
2022-07-31T08:59:42.498Z,9.95
2022-07-31T09:02:11.440Z,11.60
2022-07-31T09:04:52.567Z,12.40
2022-07-31T09:07:21.241Z,13.93
2022-07-31T09:09:51.671Z,13.05
2022-07-31T09:12:34.067Z,12.00
2022-07-31T09:15:30.541Z,11.85
2022-07-31T09:18:01.314Z,13.32
2022-07-31T09:20:29.201Z,12.02
2022-07-31T09:23:09.348Z,12.57
2022-07-31T09:25:55.761Z,12.38
2022-07-31T09:28:45.285Z,14.02
2022-07-31T09:31:15.766Z,13.13
2022-07-31T09:34:05.754Z,13.70
2022-07-31T09:36:35.819Z,12.70
2022-07-31T09:39:27.756Z,12.63
2022-07-31T09:42:19.501Z,11.20
2022-07-31T09:45:23.228Z,12.77
2022-07-31T09:48:12.563Z,12.00
2022-07-31T09:50:59.091Z,12.45
2022-07-31T09:53:45.036Z,11.60
2022-07-31T09:56:35.622Z,12.50
2022-07-31T09:59:04.251Z,12.30
2022-07-31T10:01:35.791Z,12.43
2022-07-31T10:04:05.576Z,12.60
2022-07-31T10:06:35.141Z,12.20
2022-07-31T10:09:05.762Z,12.70
2022-07-31T10:11:54.381Z,12.00
2022-07-31T10:14:31.601Z,11.45
2022-07-31T10:17:04.005Z,11.95
2022-07-31T10:20:01.902Z,11.05
2022-07-31T10:22:55.712Z,10.80
2022-07-31T10:25:29.693Z,11.45
2022-07-31T10:27:58.352Z,11.07
2022-07-31T10:30:28.487Z,10.57
2022-07-31T10:32:59.521Z,10.68
2022-07-31T10:39:02.505Z,10.53
2022-07-31T10:43:16.434Z,10.63
2022-07-31T10:45:50.869Z,10.20
2022-07-31T10:48:32.176Z,9.20
2022-07-31T10:51:10.898Z,8.77
2022-07-31T10:54:14.864Z,9.82
2022-07-31T10:57:00.339Z,10.40
2022-07-31T10:59:44.780Z,8.68
2022-07-31T11:02:33.695Z,8.63
2022-07-31T11:05:22.599Z,7.93
2022-07-31T11:08:12.822Z,8.07
2022-07-31T11:10:54.082Z,8.10
2022-07-31T11:13:45.708Z,8.43
2022-07-31T11:16:36.011Z,6.82
2022-07-31T11:19:43.434Z,7.63
2022-07-31T11:22:32.165Z,7.13
2022-07-31T11:25:00.082Z,7.00
2022-07-31T11:27:33.922Z,6.80
2022-07-31T11:30:12.998Z,7.30
2022-07-31T11:32:47.675Z,6.55
2022-07-31T11:35:25.985Z,6.70
2022-07-31T11:37:58.033Z,6.70
2022-07-31T11:40:27.970Z,6.20
2022-07-31T11:43:24.680Z,7.03
2022-07-31T11:45:52.372Z,7.32
2022-07-31T11:48:22.001Z,7.22
2022-07-31T11:50:50.302Z,7.60
2022-07-31T11:53:18.838Z,7.38
2022-07-31T11:55:55.132Z,7.50
2022-07-31T11:58:24.994Z,7.43
2022-07-31T12:00:58.290Z,8.43
2022-07-31T12:03:31.044Z,8.00
2022-07-31T12:05:58.947Z,9.48
2022-07-31T12:08:27.137Z,7.05
2022-07-31T12:10:56.466Z,6.60
2022-07-31T12:13:25.259Z,8.32
2022-07-31T12:16:00.850Z,7.53
2022-07-31T12:18:29.716Z,7.85
2022-07-31T12:21:03.556Z,6.35
2022-07-31T12:23:48.097Z,7.03
2022-07-31T12:26:31.189Z,8.15
2022-07-31T12:29:09.566Z,7.47
2022-07-31T12:32:04.145Z,7.55
2022-07-31T12:34:42.038Z,7.65
2022-07-31T12:37:18.414Z,7.30
2022-07-31T12:40:00.334Z,7.28
2022-07-31T12:42:33.086Z,7.95
2022-07-31T12:45:18.270Z,7.88
2022-07-31T12:47:52.812Z,7.57
2022-07-31T12:50:21.357Z,6.82
2022-07-31T12:52:48.996Z,7.25
2022-07-31T12:55:17.178Z,7.75
2022-07-31T12:57:50.847Z,8.48
2022-07-31T13:00:25.752Z,6.90
2022-07-31T13:02:55.293Z,6.47
2022-07-31T13:05:24.089Z,6.65
2022-07-31T13:07:52.022Z,6.38
2022-07-31T13:10:23.731Z,6.60
2022-07-31T13:12:52.444Z,6.00
2022-07-31T13:15:28.854Z,6.13
2022-07-31T13:18:04.456Z,5.35
2022-07-31T13:20:32.033Z,6.25
2022-07-31T13:23:00.665Z,6.45
2022-07-31T13:25:32.130Z,5.93
2022-07-31T13:27:59.745Z,6.80
2022-07-31T13:30:29.902Z,5.95
2022-07-31T13:32:57.020Z,5.75
2022-07-31T13:35:28.441Z,6.95
2022-07-31T13:37:56.630Z,5.35
2022-07-31T13:40:44.189Z,6.07
2022-07-31T13:43:12.114Z,5.53
2022-07-31T13:45:39.596Z,6.00
2022-07-31T13:48:09.535Z,6.10
2022-07-31T13:50:40.771Z,5.18
2022-07-31T13:53:09.574Z,4.60
2022-07-31T13:55:37.372Z,4.50
2022-07-31T13:58:04.674Z,3.85
2022-07-31T14:00:31.831Z,4.10
2022-07-31T14:02:59.458Z,4.20
2022-07-31T14:05:27.620Z,3.50
2022-07-31T14:10:23.589Z,3.92
2022-07-31T14:12:52.877Z,3.80
2022-07-31T14:15:20.381Z,4.05
2022-07-31T14:17:47.522Z,6.13
2022-07-31T14:20:15.172Z,4.10
2022-07-31T14:22:42.502Z,4.28
2022-07-31T14:25:11.605Z,4.63
2022-07-31T14:27:39.187Z,4.20
2022-07-31T14:30:08.186Z,4.00
2022-07-31T14:32:35.824Z,4.70
2022-07-31T14:35:07.992Z,4.53
2022-07-31T14:37:37.237Z,4.15
2022-07-31T14:40:05.871Z,4.60
2022-07-31T14:42:33.077Z,5.25
2022-07-31T14:45:02.529Z,4.70
2022-07-31T14:47:30.903Z,4.47
2022-07-31T14:50:07.192Z,4.40
2022-07-31T14:52:37.646Z,8.55
2022-07-31T14:55:05.707Z,5.13
2022-07-31T14:57:33.064Z,5.03
2022-07-31T15:00:00.438Z,5.00
2022-07-31T15:02:27.583Z,6.37
2022-07-31T15:04:54.834Z,4.53
2022-07-31T15:07:43.976Z,4.75
2022-07-31T15:10:10.980Z,4.45
2022-07-31T15:12:38.989Z,4.85
2022-07-31T15:15:07.767Z,4.30
2022-07-31T15:17:35.134Z,5.18
2022-07-31T15:20:03.110Z,4.70
2022-07-31T15:22:30.244Z,4.55
2022-07-31T15:24:57.452Z,5.43
2022-07-31T15:27:25.131Z,4.45
2022-07-31T15:30:00.366Z,6.78
2022-07-31T15:32:36.332Z,5.07
2022-07-31T15:35:06.834Z,4.40
2022-07-31T15:37:39.752Z,4.28
2022-07-31T15:40:12.578Z,3.80
2022-07-31T15:42:42.296Z,3.85
2022-07-31T15:45:16.441Z,4.68
2022-07-31T15:47:44.741Z,3.47
2022-07-31T15:50:16.055Z,3.53
2022-07-31T15:52:43.548Z,3.70
2022-07-31T15:55:11.224Z,3.35
2022-07-31T15:57:38.891Z,3.17
2022-07-31T16:00:10.162Z,3.63
2022-07-31T16:02:42.494Z,3.70
2022-07-31T16:05:11.129Z,3.42
2022-07-31T16:08:31.905Z,2.92
2022-07-31T16:10:34.310Z,3.05
2022-07-31T16:13:01.628Z,2.97
2022-07-31T16:15:28.952Z,3.40
2022-07-31T16:17:56.088Z,3.33
2022-07-31T16:20:26.716Z,2.75
2022-07-31T16:23:00.291Z,3.10
2022-07-31T16:25:32.230Z,3.25
2022-07-31T16:28:05.957Z,3.42
2022-07-31T16:30:33.236Z,2.90
2022-07-31T16:33:00.433Z,3.17
2022-07-31T16:35:27.728Z,3.22
2022-07-31T16:37:55.365Z,3.07
2022-07-31T16:40:30.028Z,2.70
2022-07-31T16:43:47.873Z,3.03
2022-07-31T16:45:52.888Z,2.70
2022-07-31T16:48:20.516Z,3.15
2022-07-31T16:50:54.350Z,3.38
2022-07-31T16:54:14.236Z,3.63
2022-07-31T16:56:12.030Z,3.30
2022-07-31T16:58:39.610Z,2.80
2022-07-31T17:01:58.395Z,3.33
2022-07-31T17:04:00.477Z,2.40
2022-07-31T17:06:38.316Z,3.15
2022-07-31T17:09:17.310Z,2.53
2022-07-31T17:11:47.802Z,2.90
2022-07-31T17:14:20.958Z,2.95
2022-07-31T17:16:50.296Z,2.30
2022-07-31T17:19:42.999Z,2.30
2022-07-31T17:22:08.165Z,2.10
2022-07-31T17:24:39.163Z,2.03
2022-07-31T17:27:08.533Z,1.80
2022-07-31T17:29:37.544Z,2.22
2022-07-31T17:32:06.186Z,2.17
2022-07-31T17:34:34.778Z,2.42
2022-07-31T17:37:02.202Z,1.80
2022-07-31T17:39:31.080Z,1.98
2022-07-31T17:41:59.229Z,1.55
2022-07-31T17:44:26.624Z,2.00
2022-07-31T17:49:21.830Z,1.60
2022-07-31T17:51:59.174Z,1.67
2022-07-31T17:54:30.102Z,1.50
2022-07-31T17:57:00.829Z,3.67
2022-07-31T17:59:28.579Z,3.13
2022-07-31T18:02:00.002Z,2.08
2022-07-31T18:04:30.822Z,1.75
2022-07-31T18:06:59.785Z,1.75
2022-07-31T18:09:27.983Z,1.90
2022-07-31T18:11:56.238Z,2.58
2022-07-31T18:14:24.367Z,3.00
2022-07-31T18:16:53.040Z,1.85
2022-07-31T18:19:22.745Z,2.42
2022-07-31T18:21:51.769Z,1.98
2022-07-31T18:24:20.345Z,2.05
2022-07-31T18:26:48.619Z,2.55
2022-07-31T18:31:44.970Z,2.53
2022-07-31T18:34:12.915Z,2.53
2022-07-31T18:36:40.587Z,2.67
2022-07-31T18:39:08.174Z,2.15
2022-07-31T18:41:36.590Z,3.42
2022-07-31T18:46:31.629Z,2.43
2022-07-31T18:48:59.823Z,2.70
2022-07-31T18:51:28.762Z,3.17
2022-07-31T18:53:56.315Z,3.30
2022-07-31T18:56:24.696Z,3.30
2022-07-31T19:01:20.455Z,5.80
2022-07-31T19:03:48.188Z,3.60
2022-07-31T19:06:16.272Z,5.13
2022-07-31T19:08:43.693Z,3.53
2022-07-31T19:11:11.632Z,3.20
2022-07-31T19:13:38.821Z,3.38
2022-07-31T19:16:06.246Z,3.28
2022-07-31T19:18:33.480Z,3.58
2022-07-31T19:21:23.025Z,3.27
2022-07-31T19:23:49.198Z,2.93
2022-07-31T19:26:16.410Z,3.25
2022-07-31T19:28:43.722Z,3.65
2022-07-31T19:31:12.568Z,3.47
2022-07-31T19:33:40.483Z,3.55
2022-07-31T19:36:10.139Z,3.70
2022-07-31T19:38:39.035Z,4.80
2022-07-31T19:41:06.569Z,4.35
2022-07-31T19:43:33.968Z,3.47
2022-07-31T19:46:11.565Z,3.63
2022-07-31T19:48:45.643Z,3.55
2022-07-31T19:51:15.670Z,3.85
2022-07-31T19:53:44.342Z,3.72
2022-07-31T19:56:18.119Z,4.32
2022-07-31T19:58:48.720Z,4.18
2022-07-31T20:03:43.350Z,4.28
2022-07-31T20:06:10.871Z,4.30
2022-07-31T20:08:38.018Z,5.18
2022-07-31T20:11:05.412Z,5.88
2022-07-31T20:13:37.053Z,4.90
2022-07-31T20:16:04.934Z,5.10
2022-07-31T20:18:32.149Z,4.25
2022-07-31T20:21:10.333Z,4.95
2022-07-31T20:23:40.807Z,4.38
2022-07-31T20:26:11.932Z,4.15
2022-07-31T20:28:39.768Z,4.65
2022-07-31T20:31:15.830Z,5.05
2022-07-31T20:33:56.740Z,4.85
2022-07-31T20:36:28.624Z,4.50
2022-07-31T20:38:57.993Z,4.45
2022-07-31T20:41:26.793Z,4.07
2022-07-31T20:43:54.061Z,4.88
2022-07-31T20:46:21.218Z,5.53
2022-07-31T20:48:49.326Z,4.50
2022-07-31T20:51:23.033Z,4.30
2022-07-31T20:53:52.343Z,4.63
2022-07-31T20:56:20.501Z,4.53
2022-07-31T20:58:51.602Z,4.32
2022-07-31T21:01:20.803Z,5.28
2022-07-31T21:03:49.094Z,4.82
2022-07-31T21:06:16.318Z,5.20
2022-07-31T21:08:43.452Z,4.90
2022-07-31T21:11:10.650Z,3.97
2022-07-31T21:13:37.909Z,4.93
2022-07-31T21:16:05.418Z,4.75
2022-07-31T21:18:34.727Z,4.28
2022-07-31T21:21:03.827Z,4.65
2022-07-31T21:23:30.953Z,4.88
2022-07-31T21:25:58.927Z,5.00
2022-07-31T21:28:27.611Z,5.82
2022-07-31T21:30:55.488Z,7.63
2022-07-31T21:33:25.233Z,4.82
2022-07-31T21:35:56.310Z,5.85
2022-07-31T21:38:24.159Z,4.95
2022-07-31T21:40:53.244Z,5.40
2022-07-31T21:43:22.796Z,4.20
2022-07-31T21:45:57.358Z,4.38
2022-07-31T21:48:30.929Z,3.92
2022-07-31T21:51:00.079Z,4.25
2022-07-31T21:53:27.266Z,3.75
2022-07-31T21:55:55.677Z,4.65
2022-07-31T22:00:50.207Z,5.00
2022-07-31T22:03:17.398Z,5.82
2022-07-31T22:06:03.288Z,5.43
2022-07-31T22:08:30.454Z,4.70
2022-07-31T22:10:57.610Z,4.68
2022-07-31T22:13:24.764Z,3.70
2022-07-31T22:16:00.132Z,3.65
2022-07-31T22:18:33.646Z,4.10
2022-07-31T22:21:05.626Z,4.05
2022-07-31T22:23:33.586Z,4.07
2022-07-31T22:26:01.331Z,3.85
2022-07-31T22:28:28.604Z,3.80
2022-07-31T22:30:56.835Z,5.13
2022-07-31T22:33:24.396Z,4.80
2022-07-31T22:36:00.016Z,4.82
2022-07-31T22:38:29.900Z,4.50
2022-07-31T22:41:00.987Z,4.05
2022-07-31T22:44:13.983Z,4.00
2022-07-31T22:46:16.071Z,3.97
2022-07-31T22:48:45.796Z,3.60
2022-07-31T22:51:14.621Z,3.78
2022-07-31T22:53:48.639Z,3.65
2022-07-31T22:56:17.471Z,3.15
2022-07-31T22:58:44.657Z,3.53
2022-07-31T23:01:11.796Z,3.65
2022-07-31T23:03:38.901Z,3.63
2022-07-31T23:06:31.126Z,3.22
2022-07-31T23:08:53.851Z,3.55
2022-07-31T23:11:24.040Z,2.50
2022-07-31T23:13:51.705Z,2.50
2022-07-31T23:16:19.771Z,2.27
2022-07-31T23:18:47.809Z,2.03
2022-07-31T23:21:15.387Z,2.00
2022-07-31T23:23:48.602Z,2.55
2022-07-31T23:26:23.360Z,2.50
2022-07-31T23:28:53.340Z,2.58
2022-07-31T23:31:21.715Z,2.83
2022-07-31T23:33:50.267Z,2.60
2022-07-31T23:36:18.311Z,2.33
2022-07-31T23:38:45.698Z,2.92
2022-07-31T23:41:13.345Z,2.30
2022-07-31T23:43:41.296Z,2.38
2022-07-31T23:46:26.936Z,2.25
2022-07-31T23:48:55.194Z,1.90
2022-07-31T23:51:23.392Z,1.90
2022-07-31T23:53:50.835Z,2.40
2022-07-31T23:56:19.456Z,2.28
2022-07-31T23:58:46.955Z,2.53
